sensor_id;sensor_type;location;lat;lon;timestamp;P1;durP1;ratioP1;P2;durP2;ratioP2
22826;SDS011;11580;52.562;13.418;2022-08-19T00:00:38;8.33;;;7.73;;
22826;SDS011;11580;52.562;13.418;2022-08-19T00:03:06;8.17;;;7.57;;
22826;SDS011;11580;52.562;13.418;2022-08-19T00:05:33;6.60;;;6.10;;
22826;SDS011;11580;52.562;13.418;2022-08-19T00:08:02;7.90;;;7.40;;
22826;SDS011;11580;52.562;13.418;2022-08-19T00:10:30;7.80;;;7.30;;
22826;SDS011;11580;52.562;13.418;2022-08-19T00:12:59;8.20;;;7.60;;
22826;SDS011;11580;52.562;13.418;2022-08-19T00:15:26;8.43;;;7.87;;
22826;SDS011;11580;52.562;13.418;2022-08-19T00:17:53;8.97;;;8.37;;
22826;SDS011;11580;52.562;13.418;2022-08-19T00:20:21;8.47;;;7.87;;
22826;SDS011;11580;52.562;13.418;2022-08-19T00:22:48;8.50;;;7.87;;
22826;SDS011;11580;52.562;13.418;2022-08-19T00:25:18;8.63;;;8.03;;
22826;SDS011;11580;52.562;13.418;2022-08-19T00:27:45;8.63;;;7.97;;
22826;SDS011;11580;52.562;13.418;2022-08-19T00:30:13;8.13;;;7.57;;
22826;SDS011;11580;52.562;13.418;2022-08-19T00:32:40;8.97;;;8.37;;
22826;SDS011;11580;52.562;13.418;2022-08-19T00:35:08;8.60;;;7.90;;
22826;SDS011;11580;52.562;13.418;2022-08-19T00:37:36;8.30;;;7.70;;
22826;SDS011;11580;52.562;13.418;2022-08-19T00:40:08;8.90;;;8.30;;
22826;SDS011;11580;52.562;13.418;2022-08-19T00:42:40;8.80;;;8.20;;
22826;SDS011;11580;52.562;13.418;2022-08-19T00:45:10;8.40;;;7.80;;
22826;SDS011;11580;52.562;13.418;2022-08-19T00:47:42;8.80;;;8.17;;
22826;SDS011;11580;52.562;13.418;2022-08-19T00:50:11;7.70;;;7.20;;
22826;SDS011;11580;52.562;13.418;2022-08-19T00:52:45;8.43;;;7.73;;
22826;SDS011;11580;52.562;13.418;2022-08-19T00:55:18;8.57;;;7.97;;
22826;SDS011;11580;52.562;13.418;2022-08-19T00:57:50;9.37;;;8.70;;
22826;SDS011;11580;52.562;13.418;2022-08-19T01:00:23;7.67;;;7.17;;
22826;SDS011;11580;52.562;13.418;2022-08-19T01:02:53;9.23;;;8.63;;
22826;SDS011;11580;52.562;13.418;2022-08-19T01:05:22;9.57;;;8.87;;
22826;SDS011;11580;52.562;13.418;2022-08-19T01:07:54;9.60;;;8.90;;
22826;SDS011;11580;52.562;13.418;2022-08-19T01:10:25;9.57;;;8.97;;
22826;SDS011;11580;52.562;13.418;2022-08-19T01:12:59;9.53;;;8.63;;
22826;SDS011;11580;52.562;13.418;2022-08-19T01:15:30;10.73;;;9.93;;
22826;SDS011;11580;52.562;13.418;2022-08-19T01:18:04;10.20;;;9.47;;
22826;SDS011;11580;52.562;13.418;2022-08-19T01:20:34;9.43;;;8.73;;
22826;SDS011;11580;52.562;13.418;2022-08-19T01:23:03;10.47;;;9.67;;
22826;SDS011;11580;52.562;13.418;2022-08-19T01:25:31;9.10;;;8.50;;
22826;SDS011;11580;52.562;13.418;2022-08-19T01:28:06;9.87;;;9.17;;
22826;SDS011;11580;52.562;13.418;2022-08-19T01:30:34;9.67;;;8.97;;
22826;SDS011;11580;52.562;13.418;2022-08-19T01:33:02;10.27;;;9.37;;
22826;SDS011;11580;52.562;13.418;2022-08-19T01:35:31;10.10;;;9.30;;
22826;SDS011;11580;52.562;13.418;2022-08-19T01:38:00;9.27;;;8.67;;
22826;SDS011;11580;52.562;13.418;2022-08-19T01:40:33;9.40;;;8.70;;
22826;SDS011;11580;52.562;13.418;2022-08-19T01:43:05;8.60;;;8.00;;
22826;SDS011;11580;52.562;13.418;2022-08-19T01:45:33;9.97;;;9.27;;
22826;SDS011;11580;52.562;13.418;2022-08-19T01:48:03;9.23;;;8.33;;
22826;SDS011;11580;52.562;13.418;2022-08-19T01:50:30;9.23;;;8.33;;
22826;SDS011;11580;52.562;13.418;2022-08-19T01:53:00;9.00;;;8.30;;
22826;SDS011;11580;52.562;13.418;2022-08-19T01:55:32;7.43;;;6.87;;
22826;SDS011;11580;52.562;13.418;2022-08-19T01:58:02;7.70;;;7.20;;
22826;SDS011;11580;52.562;13.418;2022-08-19T02:00:34;6.67;;;6.07;;
22826;SDS011;11580;52.562;13.418;2022-08-19T02:03:02;7.67;;;6.90;;
22826;SDS011;11580;52.562;13.418;2022-08-19T02:05:29;6.30;;;5.80;;
22826;SDS011;11580;52.562;13.418;2022-08-19T02:07:56;4.40;;;4.10;;
22826;SDS011;11580;52.562;13.418;2022-08-19T02:10:25;4.10;;;3.80;;
22826;SDS011;11580;52.562;13.418;2022-08-19T02:12:52;2.10;;;2.00;;
22826;SDS011;11580;52.562;13.418;2022-08-19T02:15:20;1.47;;;1.37;;
22826;SDS011;11580;52.562;13.418;2022-08-19T02:17:48;0.83;;;0.83;;
22826;SDS011;11580;52.562;13.418;2022-08-19T02:20:15;0.60;;;0.60;;
22826;SDS011;11580;52.562;13.418;2022-08-19T02:22:42;0.50;;;0.50;;
22826;SDS011;11580;52.562;13.418;2022-08-19T02:25:10;0.40;;;0.40;;
22826;SDS011;11580;52.562;13.418;2022-08-19T02:27:41;0.40;;;0.40;;
22826;SDS011;11580;52.562;13.418;2022-08-19T02:30:14;0.40;;;0.40;;
22826;SDS011;11580;52.562;13.418;2022-08-19T02:32:44;0.30;;;0.30;;
22826;SDS011;11580;52.562;13.418;2022-08-19T02:35:11;0.30;;;0.30;;
22826;SDS011;11580;52.562;13.418;2022-08-19T02:37:40;0.30;;;0.30;;
22826;SDS011;11580;52.562;13.418;2022-08-19T02:40:25;0.30;;;0.30;;
22826;SDS011;11580;52.562;13.418;2022-08-19T02:42:54;0.30;;;0.30;;
22826;SDS011;11580;52.562;13.418;2022-08-19T02:45:22;0.30;;;0.30;;
22826;SDS011;11580;52.562;13.418;2022-08-19T02:47:49;0.30;;;0.30;;
22826;SDS011;11580;52.562;13.418;2022-08-19T02:50:17;0.30;;;0.30;;
22826;SDS011;11580;52.562;13.418;2022-08-19T02:52:44;0.30;;;0.30;;
22826;SDS011;11580;52.562;13.418;2022-08-19T02:55:11;0.30;;;0.30;;
22826;SDS011;11580;52.562;13.418;2022-08-19T02:57:38;0.30;;;0.30;;
22826;SDS011;11580;52.562;13.418;2022-08-19T03:00:08;0.30;;;0.30;;
22826;SDS011;11580;52.562;13.418;2022-08-19T03:02:37;0.30;;;0.30;;
22826;SDS011;11580;52.562;13.418;2022-08-19T03:05:06;0.30;;;0.30;;
22826;SDS011;11580;52.562;13.418;2022-08-19T03:07:35;0.30;;;0.30;;
22826;SDS011;11580;52.562;13.418;2022-08-19T03:10:04;0.30;;;0.30;;
22826;SDS011;11580;52.562;13.418;2022-08-19T03:12:34;0.30;;;0.20;;
22826;SDS011;11580;52.562;13.418;2022-08-19T03:15:04;0.30;;;0.30;;
22826;SDS011;11580;52.562;13.418;2022-08-19T03:17:35;0.30;;;0.30;;
22826;SDS011;11580;52.562;13.418;2022-08-19T03:20:03;0.30;;;0.30;;
22826;SDS011;11580;52.562;13.418;2022-08-19T03:22:31;0.30;;;0.30;;
22826;SDS011;11580;52.562;13.418;2022-08-19T03:24:58;0.30;;;0.30;;
22826;SDS011;11580;52.562;13.418;2022-08-19T03:27:26;0.30;;;0.30;;
22826;SDS011;11580;52.562;13.418;2022-08-19T03:29:54;0.30;;;0.30;;
22826;SDS011;11580;52.562;13.418;2022-08-19T03:32:21;0.30;;;0.30;;
22826;SDS011;11580;52.562;13.418;2022-08-19T03:34:50;0.30;;;0.20;;
22826;SDS011;11580;52.562;13.418;2022-08-19T03:37:17;0.30;;;0.30;;
22826;SDS011;11580;52.562;13.418;2022-08-19T03:39:45;0.30;;;0.30;;
22826;SDS011;11580;52.562;13.418;2022-08-19T03:42:12;0.30;;;0.30;;
22826;SDS011;11580;52.562;13.418;2022-08-19T03:44:40;0.30;;;0.30;;
22826;SDS011;11580;52.562;13.418;2022-08-19T03:47:09;0.30;;;0.30;;
22826;SDS011;11580;52.562;13.418;2022-08-19T03:49:40;0.30;;;0.30;;
22826;SDS011;11580;52.562;13.418;2022-08-19T03:52:09;0.30;;;0.30;;
22826;SDS011;11580;52.562;13.418;2022-08-19T03:54:37;0.30;;;0.30;;
22826;SDS011;11580;52.562;13.418;2022-08-19T03:57:05;0.30;;;0.20;;
22826;SDS011;11580;52.562;13.418;2022-08-19T03:59:34;0.30;;;0.30;;
22826;SDS011;11580;52.562;13.418;2022-08-19T04:02:05;0.30;;;0.30;;
22826;SDS011;11580;52.562;13.418;2022-08-19T04:04:37;0.30;;;0.30;;
22826;SDS011;11580;52.562;13.418;2022-08-19T04:07:06;0.30;;;0.30;;
22826;SDS011;11580;52.562;13.418;2022-08-19T04:09:38;0.30;;;0.30;;
22826;SDS011;11580;52.562;13.418;2022-08-19T04:12:05;0.30;;;0.30;;
22826;SDS011;11580;52.562;13.418;2022-08-19T04:14:34;0.30;;;0.30;;
22826;SDS011;11580;52.562;13.418;2022-08-19T04:17:01;0.30;;;0.30;;
22826;SDS011;11580;52.562;13.418;2022-08-19T04:19:31;0.30;;;0.30;;
22826;SDS011;11580;52.562;13.418;2022-08-19T04:21:59;0.30;;;0.30;;
22826;SDS011;11580;52.562;13.418;2022-08-19T04:24:28;0.30;;;0.20;;
22826;SDS011;11580;52.562;13.418;2022-08-19T04:26:55;0.30;;;0.30;;
22826;SDS011;11580;52.562;13.418;2022-08-19T04:29:24;0.30;;;0.30;;
22826;SDS011;11580;52.562;13.418;2022-08-19T04:31:52;0.30;;;0.30;;
22826;SDS011;11580;52.562;13.418;2022-08-19T04:34:24;0.30;;;0.30;;
22826;SDS011;11580;52.562;13.418;2022-08-19T04:36:54;0.30;;;0.30;;
22826;SDS011;11580;52.562;13.418;2022-08-19T04:39:25;0.30;;;0.30;;
22826;SDS011;11580;52.562;13.418;2022-08-19T04:42:10;0.30;;;0.30;;
22826;SDS011;11580;52.562;13.418;2022-08-19T04:44:56;0.30;;;0.27;;
22826;SDS011;11580;52.562;13.418;2022-08-19T04:47:24;0.30;;;0.30;;
22826;SDS011;11580;52.562;13.418;2022-08-19T04:49:51;0.30;;;0.30;;
22826;SDS011;11580;52.562;13.418;2022-08-19T04:52:18;0.30;;;0.30;;
22826;SDS011;11580;52.562;13.418;2022-08-19T04:54:47;0.30;;;0.30;;
22826;SDS011;11580;52.562;13.418;2022-08-19T04:57:14;0.30;;;0.30;;
22826;SDS011;11580;52.562;13.418;2022-08-19T04:59:41;0.30;;;0.30;;
22826;SDS011;11580;52.562;13.418;2022-08-19T05:02:09;0.30;;;0.30;;
22826;SDS011;11580;52.562;13.418;2022-08-19T05:04:37;0.30;;;0.30;;
22826;SDS011;11580;52.562;13.418;2022-08-19T05:07:05;0.30;;;0.30;;
22826;SDS011;11580;52.562;13.418;2022-08-19T05:09:35;0.30;;;0.30;;
22826;SDS011;11580;52.562;13.418;2022-08-19T05:12:04;0.30;;;0.30;;
22826;SDS011;11580;52.562;13.418;2022-08-19T05:14:32;0.30;;;0.30;;
22826;SDS011;11580;52.562;13.418;2022-08-19T05:17:01;0.30;;;0.30;;
22826;SDS011;11580;52.562;13.418;2022-08-19T05:19:29;0.30;;;0.30;;
22826;SDS011;11580;52.562;13.418;2022-08-19T05:22:13;0.30;;;0.30;;
22826;SDS011;11580;52.562;13.418;2022-08-19T05:25:01;0.30;;;0.30;;
22826;SDS011;11580;52.562;13.418;2022-08-19T05:27:32;0.30;;;0.30;;
22826;SDS011;11580;52.562;13.418;2022-08-19T05:30:00;0.30;;;0.20;;
22826;SDS011;11580;52.562;13.418;2022-08-19T05:32:28;0.30;;;0.20;;
22826;SDS011;11580;52.562;13.418;2022-08-19T05:34:55;0.30;;;0.30;;
22826;SDS011;11580;52.562;13.418;2022-08-19T05:37:22;0.30;;;0.30;;
22826;SDS011;11580;52.562;13.418;2022-08-19T05:39:51;0.30;;;0.23;;
22826;SDS011;11580;52.562;13.418;2022-08-19T05:42:20;0.30;;;0.30;;
22826;SDS011;11580;52.562;13.418;2022-08-19T05:44:50;0.30;;;0.30;;
22826;SDS011;11580;52.562;13.418;2022-08-19T05:47:17;3.80;;;3.60;;
22826;SDS011;11580;52.562;13.418;2022-08-19T05:49:45;5.97;;;5.57;;
22826;SDS011;11580;52.562;13.418;2022-08-19T05:52:15;6.33;;;5.83;;
22826;SDS011;11580;52.562;13.418;2022-08-19T05:54:43;7.50;;;7.00;;
22826;SDS011;11580;52.562;13.418;2022-08-19T05:57:13;7.40;;;6.90;;
22826;SDS011;11580;52.562;13.418;2022-08-19T05:59:41;8.10;;;7.60;;
22826;SDS011;11580;52.562;13.418;2022-08-19T06:02:12;9.70;;;9.00;;
22826;SDS011;11580;52.562;13.418;2022-08-19T06:04:39;10.00;;;9.30;;
22826;SDS011;11580;52.562;13.418;2022-08-19T06:07:08;10.30;;;9.60;;
22826;SDS011;11580;52.562;13.418;2022-08-19T06:09:35;11.33;;;10.53;;
22826;SDS011;11580;52.562;13.418;2022-08-19T06:12:03;11.17;;;10.37;;
22826;SDS011;11580;52.562;13.418;2022-08-19T06:14:32;12.37;;;11.47;;
22826;SDS011;11580;52.562;13.418;2022-08-19T06:17:02;11.37;;;10.63;;
22826;SDS011;11580;52.562;13.418;2022-08-19T06:19:31;11.37;;;10.63;;
22826;SDS011;11580;52.562;13.418;2022-08-19T06:21:59;11.20;;;10.40;;
22826;SDS011;11580;52.562;13.418;2022-08-19T06:24:28;11.50;;;10.70;;
22826;SDS011;11580;52.562;13.418;2022-08-19T06:26:57;12.23;;;11.33;;
22826;SDS011;11580;52.562;13.418;2022-08-19T06:29:26;14.43;;;13.50;;
22826;SDS011;11580;52.562;13.418;2022-08-19T06:31:55;15.63;;;14.63;;
22826;SDS011;11580;52.562;13.418;2022-08-19T06:34:26;16.23;;;15.07;;
22826;SDS011;11580;52.562;13.418;2022-08-19T06:36:59;15.53;;;14.53;;
22826;SDS011;11580;52.562;13.418;2022-08-19T06:39:28;17.80;;;16.60;;
22826;SDS011;11580;52.562;13.418;2022-08-19T06:42:00;19.00;;;17.57;;
22826;SDS011;11580;52.562;13.418;2022-08-19T06:44:32;19.97;;;18.57;;
22826;SDS011;11580;52.562;13.418;2022-08-19T06:47:06;20.43;;;19.13;;
22826;SDS011;11580;52.562;13.418;2022-08-19T06:49:37;20.20;;;19.00;;
22826;SDS011;11580;52.562;13.418;2022-08-19T06:52:05;21.57;;;20.07;;
22826;SDS011;11580;52.562;13.418;2022-08-19T06:54:32;19.87;;;18.50;;
22826;SDS011;11580;52.562;13.418;2022-08-19T06:57:00;20.07;;;18.67;;
22826;SDS011;11580;52.562;13.418;2022-08-19T06:59:28;21.77;;;20.37;;
22826;SDS011;11580;52.562;13.418;2022-08-19T07:01:58;23.60;;;22.00;;
22826;SDS011;11580;52.562;13.418;2022-08-19T07:04:30;22.27;;;20.87;;
22826;SDS011;11580;52.562;13.418;2022-08-19T07:07:01;24.10;;;22.50;;
22826;SDS011;11580;52.562;13.418;2022-08-19T07:09:32;22.90;;;21.40;;
22826;SDS011;11580;52.562;13.418;2022-08-19T07:12:02;22.40;;;20.90;;
22826;SDS011;11580;52.562;13.418;2022-08-19T07:14:31;24.10;;;22.50;;
22826;SDS011;11580;52.562;13.418;2022-08-19T07:17:03;24.20;;;22.60;;
22826;SDS011;11580;52.562;13.418;2022-08-19T07:19:35;23.83;;;22.23;;
22826;SDS011;11580;52.562;13.418;2022-08-19T07:22:05;25.20;;;23.53;;
22826;SDS011;11580;52.562;13.418;2022-08-19T07:24:34;24.70;;;23.07;;
22826;SDS011;11580;52.562;13.418;2022-08-19T07:27:04;24.47;;;22.77;;
22826;SDS011;11580;52.562;13.418;2022-08-19T07:29:34;25.30;;;23.60;;
22826;SDS011;11580;52.562;13.418;2022-08-19T07:32:03;24.00;;;22.40;;
22826;SDS011;11580;52.562;13.418;2022-08-19T07:34:32;25.87;;;24.10;;
22826;SDS011;11580;52.562;13.418;2022-08-19T07:37:02;24.60;;;23.00;;
22826;SDS011;11580;52.562;13.418;2022-08-19T07:39:33;24.33;;;22.70;;
22826;SDS011;11580;52.562;13.418;2022-08-19T07:42:05;25.43;;;23.83;;
22826;SDS011;11580;52.562;13.418;2022-08-19T07:44:35;25.23;;;23.53;;
22826;SDS011;11580;52.562;13.418;2022-08-19T07:47:03;24.47;;;22.90;;
22826;SDS011;11580;52.562;13.418;2022-08-19T07:49:31;25.10;;;23.50;;
22826;SDS011;11580;52.562;13.418;2022-08-19T07:52:00;24.87;;;23.23;;
22826;SDS011;11580;52.562;13.418;2022-08-19T07:54:33;24.47;;;22.97;;
22826;SDS011;11580;52.562;13.418;2022-08-19T07:57:03;25.80;;;24.10;;
22826;SDS011;11580;52.562;13.418;2022-08-19T07:59:32;26.57;;;24.77;;
22826;SDS011;11580;52.562;13.418;2022-08-19T08:02:00;27.10;;;25.30;;
22826;SDS011;11580;52.562;13.418;2022-08-19T08:04:28;25.13;;;23.47;;
22826;SDS011;11580;52.562;13.418;2022-08-19T08:07:14;26.37;;;24.57;;
22826;SDS011;11580;52.562;13.418;2022-08-19T08:10:06;26.60;;;24.80;;
22826;SDS011;11580;52.562;13.418;2022-08-19T08:12:35;27.07;;;25.17;;
22826;SDS011;11580;52.562;13.418;2022-08-19T08:15:08;26.30;;;24.60;;
22826;SDS011;11580;52.562;13.418;2022-08-19T08:17:42;27.70;;;25.93;;
22826;SDS011;11580;52.562;13.418;2022-08-19T08:20:09;28.50;;;26.60;;
22826;SDS011;11580;52.562;13.418;2022-08-19T08:22:42;29.03;;;27.10;;
22826;SDS011;11580;52.562;13.418;2022-08-19T08:25:29;27.10;;;25.30;;
22826;SDS011;11580;52.562;13.418;2022-08-19T08:27:57;27.90;;;26.00;;
22826;SDS011;11580;52.562;13.418;2022-08-19T08:30:25;27.30;;;25.40;;
22826;SDS011;11580;52.562;13.418;2022-08-19T08:32:55;29.13;;;27.13;;
22826;SDS011;11580;52.562;13.418;2022-08-19T08:35:23;26.77;;;25.07;;
22826;SDS011;11580;52.562;13.418;2022-08-19T08:37:51;26.40;;;24.70;;
22826;SDS011;11580;52.562;13.418;2022-08-19T08:40:22;24.80;;;23.17;;
22826;SDS011;11580;52.562;13.418;2022-08-19T08:42:57;27.60;;;25.60;;
22826;SDS011;11580;52.562;13.418;2022-08-19T08:45:32;27.10;;;25.27;;
22826;SDS011;11580;52.562;13.418;2022-08-19T08:48:04;27.20;;;25.50;;
22826;SDS011;11580;52.562;13.418;2022-08-19T08:50:43;27.00;;;25.30;;
22826;SDS011;11580;52.562;13.418;2022-08-19T08:53:16;27.27;;;25.47;;
22826;SDS011;11580;52.562;13.418;2022-08-19T08:55:45;28.43;;;26.53;;
22826;SDS011;11580;52.562;13.418;2022-08-19T08:58:16;27.47;;;25.67;;
22826;SDS011;11580;52.562;13.418;2022-08-19T09:00:55;25.70;;;24.10;;
22826;SDS011;11580;52.562;13.418;2022-08-19T09:03:25;26.80;;;25.10;;
22826;SDS011;11580;52.562;13.418;2022-08-19T09:05:59;25.60;;;23.90;;
22826;SDS011;11580;52.562;13.418;2022-08-19T09:08:37;26.30;;;24.57;;
22826;SDS011;11580;52.562;13.418;2022-08-19T09:11:14;24.43;;;22.83;;
22826;SDS011;11580;52.562;13.418;2022-08-19T09:13:56;24.43;;;22.93;;
22826;SDS011;11580;52.562;13.418;2022-08-19T09:16:39;24.90;;;23.07;;
22826;SDS011;11580;52.562;13.418;2022-08-19T09:19:06;23.30;;;21.60;;
22826;SDS011;11580;52.562;13.418;2022-08-19T09:21:35;22.10;;;20.70;;
22826;SDS011;11580;52.562;13.418;2022-08-19T09:24:04;22.47;;;21.00;;
22826;SDS011;11580;52.562;13.418;2022-08-19T09:26:32;22.53;;;21.03;;
22826;SDS011;11580;52.562;13.418;2022-08-19T09:29:01;23.63;;;22.10;;
22826;SDS011;11580;52.562;13.418;2022-08-19T09:31:31;23.13;;;21.63;;
22826;SDS011;11580;52.562;13.418;2022-08-19T09:33:58;21.10;;;19.60;;
22826;SDS011;11580;52.562;13.418;2022-08-19T09:36:28;21.80;;;20.30;;
22826;SDS011;11580;52.562;13.418;2022-08-19T09:39:02;20.97;;;19.67;;
22826;SDS011;11580;52.562;13.418;2022-08-19T09:41:31;19.70;;;18.50;;
22826;SDS011;11580;52.562;13.418;2022-08-19T09:43:59;19.00;;;17.90;;
22826;SDS011;11580;52.562;13.418;2022-08-19T09:46:28;18.67;;;17.57;;
22826;SDS011;11580;52.562;13.418;2022-08-19T09:48:57;19.63;;;18.13;;
22826;SDS011;11580;52.562;13.418;2022-08-19T09:51:27;19.37;;;18.17;;
22826;SDS011;11580;52.562;13.418;2022-08-19T09:53:55;19.20;;;18.00;;
22826;SDS011;11580;52.562;13.418;2022-08-19T09:56:28;20.07;;;18.77;;
22826;SDS011;11580;52.562;13.418;2022-08-19T09:58:57;20.20;;;18.87;;
22826;SDS011;11580;52.562;13.418;2022-08-19T10:01:29;19.13;;;17.83;;
22826;SDS011;11580;52.562;13.418;2022-08-19T10:03:59;19.53;;;18.13;;
22826;SDS011;11580;52.562;13.418;2022-08-19T10:06:28;18.87;;;17.57;;
22826;SDS011;11580;52.562;13.418;2022-08-19T10:08:58;18.40;;;17.20;;
22826;SDS011;11580;52.562;13.418;2022-08-19T10:11:25;18.83;;;17.63;;
22826;SDS011;11580;52.562;13.418;2022-08-19T10:13:54;17.80;;;16.70;;
22826;SDS011;11580;52.562;13.418;2022-08-19T10:16:22;18.27;;;17.17;;
22826;SDS011;11580;52.562;13.418;2022-08-19T10:18:52;17.30;;;16.23;;
22826;SDS011;11580;52.562;13.418;2022-08-19T10:21:22;17.00;;;15.90;;
22826;SDS011;11580;52.562;13.418;2022-08-19T10:23:52;17.10;;;16.03;;
22826;SDS011;11580;52.562;13.418;2022-08-19T10:26:23;17.87;;;16.70;;
22826;SDS011;11580;52.562;13.418;2022-08-19T10:28:53;17.63;;;16.53;;
22826;SDS011;11580;52.562;13.418;2022-08-19T10:31:23;16.70;;;15.70;;
22826;SDS011;11580;52.562;13.418;2022-08-19T10:33:55;18.97;;;17.77;;
22826;SDS011;11580;52.562;13.418;2022-08-19T10:36:24;18.47;;;17.27;;
22826;SDS011;11580;52.562;13.418;2022-08-19T10:38:55;17.03;;;15.93;;
22826;SDS011;11580;52.562;13.418;2022-08-19T10:41:27;16.40;;;15.37;;
22826;SDS011;11580;52.562;13.418;2022-08-19T10:43:57;16.43;;;15.40;;
22826;SDS011;11580;52.562;13.418;2022-08-19T10:46:27;19.73;;;18.43;;
22826;SDS011;11580;52.562;13.418;2022-08-19T10:48:59;17.67;;;16.57;;
22826;SDS011;11580;52.562;13.418;2022-08-19T10:51:28;17.97;;;16.87;;
22826;SDS011;11580;52.562;13.418;2022-08-19T10:54:14;17.53;;;16.43;;
22826;SDS011;11580;52.562;13.418;2022-08-19T10:56:41;17.23;;;16.13;;
22826;SDS011;11580;52.562;13.418;2022-08-19T10:59:18;17.20;;;16.13;;
22826;SDS011;11580;52.562;13.418;2022-08-19T11:01:48;16.97;;;15.90;;
22826;SDS011;11580;52.562;13.418;2022-08-19T11:04:18;16.90;;;15.90;;
22826;SDS011;11580;52.562;13.418;2022-08-19T11:06:48;16.77;;;15.77;;
22826;SDS011;11580;52.562;13.418;2022-08-19T11:09:15;17.40;;;16.23;;
22826;SDS011;11580;52.562;13.418;2022-08-19T11:11:45;17.80;;;16.60;;
22826;SDS011;11580;52.562;13.418;2022-08-19T11:14:13;16.07;;;15.07;;
22826;SDS011;11580;52.562;13.418;2022-08-19T11:16:43;16.40;;;15.40;;
22826;SDS011;11580;52.562;13.418;2022-08-19T11:19:11;16.13;;;14.93;;
22826;SDS011;11580;52.562;13.418;2022-08-19T11:21:43;15.30;;;14.20;;
22826;SDS011;11580;52.562;13.418;2022-08-19T11:24:14;17.63;;;16.43;;
22826;SDS011;11580;52.562;13.418;2022-08-19T11:26:45;17.43;;;16.23;;
22826;SDS011;11580;52.562;13.418;2022-08-19T11:29:15;17.23;;;16.03;;
22826;SDS011;11580;52.562;13.418;2022-08-19T11:31:46;16.07;;;15.00;;
22826;SDS011;11580;52.562;13.418;2022-08-19T11:34:16;16.37;;;15.27;;
22826;SDS011;11580;52.562;13.418;2022-08-19T11:36:49;15.80;;;14.80;;
22826;SDS011;11580;52.562;13.418;2022-08-19T11:39:18;15.53;;;14.50;;
22826;SDS011;11580;52.562;13.418;2022-08-19T11:41:47;15.80;;;14.80;;
22826;SDS011;11580;52.562;13.418;2022-08-19T11:44:15;14.93;;;13.93;;
22826;SDS011;11580;52.562;13.418;2022-08-19T11:46:43;15.57;;;14.47;;
22826;SDS011;11580;52.562;13.418;2022-08-19T11:49:12;15.53;;;14.63;;
22826;SDS011;11580;52.562;13.418;2022-08-19T11:51:41;14.30;;;13.40;;
22826;SDS011;11580;52.562;13.418;2022-08-19T11:54:10;14.50;;;13.60;;
22826;SDS011;11580;52.562;13.418;2022-08-19T11:56:39;12.87;;;12.17;;
22826;SDS011;11580;52.562;13.418;2022-08-19T11:59:08;14.03;;;13.20;;
22826;SDS011;11580;52.562;13.418;2022-08-19T12:01:36;13.27;;;12.47;;
22826;SDS011;11580;52.562;13.418;2022-08-19T12:04:05;13.90;;;13.07;;
22826;SDS011;11580;52.562;13.418;2022-08-19T12:06:33;13.37;;;12.43;;
22826;SDS011;11580;52.562;13.418;2022-08-19T12:09:04;13.80;;;12.90;;
22826;SDS011;11580;52.562;13.418;2022-08-19T12:11:34;14.40;;;13.47;;
22826;SDS011;11580;52.562;13.418;2022-08-19T12:14:03;12.47;;;11.67;;
22826;SDS011;11580;52.562;13.418;2022-08-19T12:16:31;13.13;;;12.20;;
22826;SDS011;11580;52.562;13.418;2022-08-19T12:18:59;12.77;;;11.97;;
22826;SDS011;11580;52.562;13.418;2022-08-19T12:21:30;13.83;;;12.93;;
22826;SDS011;11580;52.562;13.418;2022-08-19T12:24:00;13.93;;;13.03;;
22826;SDS011;11580;52.562;13.418;2022-08-19T12:26:33;12.10;;;11.40;;
22826;SDS011;11580;52.562;13.418;2022-08-19T12:29:02;12.53;;;11.80;;
22826;SDS011;11580;52.562;13.418;2022-08-19T12:31:29;13.00;;;12.07;;
22826;SDS011;11580;52.562;13.418;2022-08-19T12:33:57;11.73;;;10.93;;
22826;SDS011;11580;52.562;13.418;2022-08-19T12:36:25;11.73;;;11.03;;
22826;SDS011;11580;52.562;13.418;2022-08-19T12:38:52;12.30;;;11.50;;
22826;SDS011;11580;52.562;13.418;2022-08-19T12:41:20;11.73;;;10.87;;
22826;SDS011;11580;52.562;13.418;2022-08-19T12:43:49;11.20;;;10.50;;
22826;SDS011;11580;52.562;13.418;2022-08-19T12:46:17;11.57;;;10.87;;
22826;SDS011;11580;52.562;13.418;2022-08-19T12:48:46;10.90;;;10.30;;
22826;SDS011;11580;52.562;13.418;2022-08-19T12:51:14;11.80;;;11.10;;
22826;SDS011;11580;52.562;13.418;2022-08-19T12:53:44;11.93;;;11.13;;
22826;SDS011;11580;52.562;13.418;2022-08-19T12:56:14;12.40;;;11.70;;
22826;SDS011;11580;52.562;13.418;2022-08-19T12:58:42;13.97;;;13.17;;
22826;SDS011;11580;52.562;13.418;2022-08-19T13:01:11;12.87;;;12.17;;
22826;SDS011;11580;52.562;13.418;2022-08-19T13:03:44;14.07;;;13.17;;
22826;SDS011;11580;52.562;13.418;2022-08-19T13:06:12;13.40;;;12.70;;
22826;SDS011;11580;52.562;13.418;2022-08-19T13:08:40;12.60;;;11.80;;
22826;SDS011;11580;52.562;13.418;2022-08-19T13:11:09;12.13;;;11.40;;
22826;SDS011;11580;52.562;13.418;2022-08-19T13:13:38;12.67;;;11.90;;
22826;SDS011;11580;52.562;13.418;2022-08-19T13:16:08;12.93;;;12.03;;
22826;SDS011;11580;52.562;13.418;2022-08-19T13:18:39;13.73;;;12.90;;
22826;SDS011;11580;52.562;13.418;2022-08-19T13:21:09;12.93;;;12.13;;
22826;SDS011;11580;52.562;13.418;2022-08-19T13:23:38;12.97;;;12.17;;
22826;SDS011;11580;52.562;13.418;2022-08-19T13:26:07;12.87;;;11.87;;
22826;SDS011;11580;52.562;13.418;2022-08-19T13:28:36;12.53;;;11.83;;
22826;SDS011;11580;52.562;13.418;2022-08-19T13:31:26;13.10;;;12.30;;
22826;SDS011;11580;52.562;13.418;2022-08-19T13:34:15;13.67;;;12.87;;
22826;SDS011;11580;52.562;13.418;2022-08-19T13:36:44;13.40;;;12.60;;
22826;SDS011;11580;52.562;13.418;2022-08-19T13:39:12;12.53;;;11.83;;
22826;SDS011;11580;52.562;13.418;2022-08-19T13:41:42;13.37;;;12.57;;
22826;SDS011;11580;52.562;13.418;2022-08-19T13:44:13;14.80;;;13.90;;
22826;SDS011;11580;52.562;13.418;2022-08-19T13:46:44;13.33;;;12.53;;
22826;SDS011;11580;52.562;13.418;2022-08-19T13:49:14;14.53;;;13.53;;
22826;SDS011;11580;52.562;13.418;2022-08-19T13:51:41;13.70;;;12.80;;
22826;SDS011;11580;52.562;13.418;2022-08-19T13:54:09;14.00;;;13.10;;
22826;SDS011;11580;52.562;13.418;2022-08-19T13:56:39;13.90;;;13.03;;
22826;SDS011;11580;52.562;13.418;2022-08-19T13:59:09;13.20;;;12.40;;
22826;SDS011;11580;52.562;13.418;2022-08-19T14:01:37;12.90;;;12.10;;
22826;SDS011;11580;52.562;13.418;2022-08-19T14:04:07;14.27;;;13.30;;
22826;SDS011;11580;52.562;13.418;2022-08-19T14:06:35;13.60;;;12.70;;
22826;SDS011;11580;52.562;13.418;2022-08-19T14:09:02;12.83;;;12.00;;
22826;SDS011;11580;52.562;13.418;2022-08-19T14:11:30;12.77;;;11.70;;
22826;SDS011;11580;52.562;13.418;2022-08-19T14:13:58;13.83;;;12.97;;
22826;SDS011;11580;52.562;13.418;2022-08-19T14:16:25;13.17;;;12.33;;
22826;SDS011;11580;52.562;13.418;2022-08-19T14:18:55;13.03;;;12.17;;
22826;SDS011;11580;52.562;13.418;2022-08-19T14:21:24;13.70;;;12.90;;
22826;SDS011;11580;52.562;13.418;2022-08-19T14:23:51;12.27;;;11.53;;
22826;SDS011;11580;52.562;13.418;2022-08-19T14:26:20;13.00;;;12.20;;
22826;SDS011;11580;52.562;13.418;2022-08-19T14:28:49;13.13;;;12.27;;
22826;SDS011;11580;52.562;13.418;2022-08-19T14:31:17;12.77;;;11.97;;
22826;SDS011;11580;52.562;13.418;2022-08-19T14:33:46;12.80;;;12.00;;